Amelia, Ohio
Current Conditions -  °F | °C
As of 8:53 AM on Thursday 23 Oct 2014 (Local Time) from KLUK Reporting Station
Light Fog Light Fog  
Wind Chill: 40°   Ceiling: Unl
Heat Index: 40°   Visibility: 10mi
Dew Point: 39°   Wind: 3mph
Humidity: 97%   Direction: 40°NE
Pressure: 30.28"   Gusts: NA
Location:  39.03°N, 84.22°W
Report Text: KLUK 231253Z 04003KT 10SM R21L/1800V6000FT BCFG CLR 04/04 A3028 RMK AO2 SLP253 T00440039
Loading
Personal Weather Stations






























Interactive Weather Map
Tropical Storm Tracking
New forecast layout! Learn more

10-Day Weather Forecast

Advertisements
Track Severe Weather on mobile